sensor_id;sensor_type;location;lat;lon;timestamp;P1;durP1;ratioP1;P2;durP2;ratioP2
24901;SDS011;31328;51.402;0.016;2023-06-14T00:01:06;2.17;;;1.02;;
24901;SDS011;31328;51.402;0.016;2023-06-14T00:03:33;1.67;;;1.30;;
24901;SDS011;31328;51.402;0.016;2023-06-14T00:05:59;1.38;;;0.95;;
24901;SDS011;31328;51.402;0.016;2023-06-14T00:08:25;2.47;;;1.25;;
24901;SDS011;31328;51.402;0.016;2023-06-14T00:10:52;0.90;;;0.80;;
24901;SDS011;31328;51.402;0.016;2023-06-14T00:13:18;1.17;;;0.82;;
24901;SDS011;31328;51.402;0.016;2023-06-14T00:15:44;1.80;;;0.85;;
24901;SDS011;31328;51.402;0.016;2023-06-14T00:18:12;1.30;;;0.95;;
24901;SDS011;31328;51.402;0.016;2023-06-14T00:20:39;1.10;;;0.90;;
24901;SDS011;31328;51.402;0.016;2023-06-14T00:23:07;1.90;;;0.93;;
24901;SDS011;31328;51.402;0.016;2023-06-14T00:25:33;1.05;;;0.60;;
24901;SDS011;31328;51.402;0.016;2023-06-14T00:28:00;2.20;;;0.60;;
24901;SDS011;31328;51.402;0.016;2023-06-14T00:30:26;0.65;;;0.50;;
24901;SDS011;31328;51.402;0.016;2023-06-14T00:32:56;3.03;;;0.70;;
24901;SDS011;31328;51.402;0.016;2023-06-14T00:35:25;1.40;;;0.60;;
24901;SDS011;31328;51.402;0.016;2023-06-14T00:37:51;2.08;;;0.90;;
24901;SDS011;31328;51.402;0.016;2023-06-14T00:40:20;3.67;;;0.63;;
24901;SDS011;31328;51.402;0.016;2023-06-14T00:42:47;2.38;;;0.60;;
24901;SDS011;31328;51.402;0.016;2023-06-14T00:45:14;1.95;;;0.60;;
24901;SDS011;31328;51.402;0.016;2023-06-14T00:47:41;1.15;;;0.52;;
24901;SDS011;31328;51.402;0.016;2023-06-14T00:50:09;0.85;;;0.50;;
24901;SDS011;31328;51.402;0.016;2023-06-14T00:52:37;1.27;;;0.70;;
24901;SDS011;31328;51.402;0.016;2023-06-14T00:55:03;1.58;;;0.93;;
24901;SDS011;31328;51.402;0.016;2023-06-14T00:57:31;1.98;;;0.77;;
24901;SDS011;31328;51.402;0.016;2023-06-14T00:59:58;2.10;;;0.52;;
24901;SDS011;31328;51.402;0.016;2023-06-14T01:02:24;2.28;;;0.70;;
24901;SDS011;31328;51.402;0.016;2023-06-14T01:04:50;0.82;;;0.68;;
24901;SDS011;31328;51.402;0.016;2023-06-14T01:07:23;2.20;;;0.70;;
24901;SDS011;31328;51.402;0.016;2023-06-14T01:15:22;2.13;;;0.70;;
24901;SDS011;31328;51.402;0.016;2023-06-14T01:17:49;1.35;;;0.63;;
24901;SDS011;31328;51.402;0.016;2023-06-14T01:20:21;1.10;;;0.73;;
24901;SDS011;31328;51.402;0.016;2023-06-14T01:22:50;0.82;;;0.60;;
24901;SDS011;31328;51.402;0.016;2023-06-14T01:25:18;1.75;;;0.70;;
24901;SDS011;31328;51.402;0.016;2023-06-14T01:27:53;1.50;;;0.50;;
24901;SDS011;31328;51.402;0.016;2023-06-14T01:30:28;0.80;;;0.50;;
24901;SDS011;31328;51.402;0.016;2023-06-14T01:32:56;0.85;;;0.60;;
24901;SDS011;31328;51.402;0.016;2023-06-14T01:35:24;1.10;;;0.65;;
24901;SDS011;31328;51.402;0.016;2023-06-14T01:37:51;1.38;;;0.60;;
24901;SDS011;31328;51.402;0.016;2023-06-14T01:40:18;1.20;;;0.73;;
24901;SDS011;31328;51.402;0.016;2023-06-14T01:42:46;1.55;;;0.47;;
24901;SDS011;31328;51.402;0.016;2023-06-14T01:45:15;1.58;;;0.65;;
24901;SDS011;31328;51.402;0.016;2023-06-14T01:47:42;1.10;;;0.55;;
24901;SDS011;31328;51.402;0.016;2023-06-14T01:50:10;2.42;;;0.80;;
24901;SDS011;31328;51.402;0.016;2023-06-14T01:52:37;1.90;;;0.65;;
24901;SDS011;31328;51.402;0.016;2023-06-14T01:55:04;0.80;;;0.50;;
24901;SDS011;31328;51.402;0.016;2023-06-14T01:57:31;1.08;;;0.55;;
24901;SDS011;31328;51.402;0.016;2023-06-14T01:59:59;1.73;;;0.60;;
24901;SDS011;31328;51.402;0.016;2023-06-14T02:02:25;1.30;;;0.77;;
24901;SDS011;31328;51.402;0.016;2023-06-14T02:04:52;1.58;;;1.00;;
24901;SDS011;31328;51.402;0.016;2023-06-14T02:07:23;1.92;;;1.00;;
24901;SDS011;31328;51.402;0.016;2023-06-14T02:09:51;1.98;;;0.80;;
24901;SDS011;31328;51.402;0.016;2023-06-14T02:12:17;1.38;;;0.77;;
24901;SDS011;31328;51.402;0.016;2023-06-14T02:14:43;1.20;;;0.90;;
24901;SDS011;31328;51.402;0.016;2023-06-14T02:17:10;1.17;;;0.57;;
24901;SDS011;31328;51.402;0.016;2023-06-14T02:19:37;1.58;;;0.63;;
24901;SDS011;31328;51.402;0.016;2023-06-14T02:22:04;1.40;;;0.77;;
24901;SDS011;31328;51.402;0.016;2023-06-14T02:24:30;1.75;;;0.77;;
24901;SDS011;31328;51.402;0.016;2023-06-14T02:26:58;2.38;;;0.82;;
24901;SDS011;31328;51.402;0.016;2023-06-14T02:29:24;2.13;;;0.88;;
24901;SDS011;31328;51.402;0.016;2023-06-14T02:31:51;0.95;;;0.80;;
24901;SDS011;31328;51.402;0.016;2023-06-14T02:34:20;2.17;;;0.80;;
24901;SDS011;31328;51.402;0.016;2023-06-14T02:36:47;1.65;;;0.90;;
24901;SDS011;31328;51.402;0.016;2023-06-14T02:39:14;2.13;;;0.75;;
24901;SDS011;31328;51.402;0.016;2023-06-14T02:41:40;1.83;;;0.93;;
24901;SDS011;31328;51.402;0.016;2023-06-14T02:44:06;1.63;;;0.80;;
24901;SDS011;31328;51.402;0.016;2023-06-14T02:46:33;3.90;;;1.00;;
24901;SDS011;31328;51.402;0.016;2023-06-14T02:48:59;1.73;;;0.77;;
24901;SDS011;31328;51.402;0.016;2023-06-14T02:51:26;2.65;;;0.95;;
24901;SDS011;31328;51.402;0.016;2023-06-14T02:53:52;2.78;;;1.10;;
24901;SDS011;31328;51.402;0.016;2023-06-14T02:56:19;1.02;;;0.80;;
24901;SDS011;31328;51.402;0.016;2023-06-14T02:58:47;1.98;;;0.88;;
24901;SDS011;31328;51.402;0.016;2023-06-14T03:01:15;2.47;;;0.88;;
24901;SDS011;31328;51.402;0.016;2023-06-14T03:03:41;2.05;;;0.90;;
24901;SDS011;31328;51.402;0.016;2023-06-14T03:06:08;3.80;;;1.10;;
24901;SDS011;31328;51.402;0.016;2023-06-14T03:08:37;1.20;;;0.90;;
24901;SDS011;31328;51.402;0.016;2023-06-14T03:11:14;2.28;;;0.80;;
24901;SDS011;31328;51.402;0.016;2023-06-14T03:13:40;1.65;;;0.88;;
24901;SDS011;31328;51.402;0.016;2023-06-14T03:16:07;4.05;;;1.55;;
24901;SDS011;31328;51.402;0.016;2023-06-14T03:18:37;1.65;;;1.00;;
24901;SDS011;31328;51.402;0.016;2023-06-14T03:21:05;2.97;;;1.20;;
24901;SDS011;31328;51.402;0.016;2023-06-14T03:23:35;3.13;;;0.90;;
24901;SDS011;31328;51.402;0.016;2023-06-14T03:26:03;3.22;;;1.05;;
24901;SDS011;31328;51.402;0.016;2023-06-14T03:28:30;1.55;;;1.10;;
24901;SDS011;31328;51.402;0.016;2023-06-14T03:30:56;1.60;;;1.20;;
24901;SDS011;31328;51.402;0.016;2023-06-14T03:33:24;1.48;;;0.70;;
24901;SDS011;31328;51.402;0.016;2023-06-14T03:35:51;2.20;;;1.02;;
24901;SDS011;31328;51.402;0.016;2023-06-14T03:38:18;2.00;;;0.80;;
24901;SDS011;31328;51.402;0.016;2023-06-14T03:40:45;1.67;;;0.80;;
24901;SDS011;31328;51.402;0.016;2023-06-14T03:43:12;2.63;;;1.25;;
24901;SDS011;31328;51.402;0.016;2023-06-14T03:45:38;1.90;;;1.17;;
24901;SDS011;31328;51.402;0.016;2023-06-14T03:48:06;1.23;;;0.80;;
24901;SDS011;31328;51.402;0.016;2023-06-14T03:50:35;2.58;;;1.27;;
24901;SDS011;31328;51.402;0.016;2023-06-14T03:53:04;2.25;;;1.10;;
24901;SDS011;31328;51.402;0.016;2023-06-14T03:55:31;2.65;;;1.00;;
24901;SDS011;31328;51.402;0.016;2023-06-14T03:57:59;2.15;;;1.08;;
24901;SDS011;31328;51.402;0.016;2023-06-14T04:00:27;2.55;;;1.33;;
24901;SDS011;31328;51.402;0.016;2023-06-14T04:02:54;1.17;;;1.08;;
24901;SDS011;31328;51.402;0.016;2023-06-14T04:05:20;1.75;;;1.13;;
24901;SDS011;31328;51.402;0.016;2023-06-14T04:07:49;2.78;;;1.92;;
24901;SDS011;31328;51.402;0.016;2023-06-14T04:10:16;3.17;;;1.80;;
24901;SDS011;31328;51.402;0.016;2023-06-14T04:12:44;3.97;;;1.77;;
24901;SDS011;31328;51.402;0.016;2023-06-14T04:15:11;3.85;;;1.60;;
24901;SDS011;31328;51.402;0.016;2023-06-14T04:17:38;3.05;;;1.80;;
24901;SDS011;31328;51.402;0.016;2023-06-14T04:20:05;2.88;;;2.15;;
24901;SDS011;31328;51.402;0.016;2023-06-14T04:22:35;4.57;;;2.10;;
24901;SDS011;31328;51.402;0.016;2023-06-14T04:25:03;4.93;;;2.03;;
24901;SDS011;31328;51.402;0.016;2023-06-14T04:27:32;5.65;;;2.30;;
24901;SDS011;31328;51.402;0.016;2023-06-14T04:30:02;3.08;;;1.63;;
24901;SDS011;31328;51.402;0.016;2023-06-14T04:32:35;4.40;;;1.52;;
24901;SDS011;31328;51.402;0.016;2023-06-14T04:35:06;4.05;;;1.63;;
24901;SDS011;31328;51.402;0.016;2023-06-14T04:37:34;4.43;;;1.23;;
24901;SDS011;31328;51.402;0.016;2023-06-14T04:40:01;3.25;;;1.27;;
24901;SDS011;31328;51.402;0.016;2023-06-14T04:42:31;2.70;;;1.05;;
24901;SDS011;31328;51.402;0.016;2023-06-14T04:44:59;2.90;;;1.17;;
24901;SDS011;31328;51.402;0.016;2023-06-14T04:47:27;3.00;;;1.63;;
24901;SDS011;31328;51.402;0.016;2023-06-14T04:49:59;1.73;;;1.13;;
24901;SDS011;31328;51.402;0.016;2023-06-14T04:52:29;1.50;;;1.00;;
24901;SDS011;31328;51.402;0.016;2023-06-14T04:54:56;1.55;;;1.05;;
24901;SDS011;31328;51.402;0.016;2023-06-14T04:57:24;1.48;;;0.65;;
24901;SDS011;31328;51.402;0.016;2023-06-14T04:59:54;1.67;;;0.90;;
24901;SDS011;31328;51.402;0.016;2023-06-14T05:02:24;2.75;;;0.90;;
24901;SDS011;31328;51.402;0.016;2023-06-14T05:04:52;1.77;;;0.93;;
24901;SDS011;31328;51.402;0.016;2023-06-14T05:07:19;2.80;;;0.80;;
24901;SDS011;31328;51.402;0.016;2023-06-14T05:09:48;1.13;;;0.70;;
24901;SDS011;31328;51.402;0.016;2023-06-14T05:12:14;1.35;;;0.80;;
24901;SDS011;31328;51.402;0.016;2023-06-14T05:14:44;2.67;;;0.30;;
24901;SDS011;31328;51.402;0.016;2023-06-14T05:17:11;1.30;;;0.82;;
24901;SDS011;31328;51.402;0.016;2023-06-14T05:19:37;1.02;;;0.68;;
24901;SDS011;31328;51.402;0.016;2023-06-14T05:22:04;1.20;;;0.50;;
24901;SDS011;31328;51.402;0.016;2023-06-14T05:24:30;1.73;;;0.80;;
24901;SDS011;31328;51.402;0.016;2023-06-14T05:26:57;0.80;;;0.60;;
24901;SDS011;31328;51.402;0.016;2023-06-14T05:29:24;0.52;;;0.52;;
24901;SDS011;31328;51.402;0.016;2023-06-14T05:31:51;3.55;;;0.82;;
24901;SDS011;31328;51.402;0.016;2023-06-14T05:34:17;0.98;;;0.47;;
24901;SDS011;31328;51.402;0.016;2023-06-14T05:36:44;0.70;;;0.47;;
24901;SDS011;31328;51.402;0.016;2023-06-14T05:39:10;0.45;;;0.45;;
24901;SDS011;31328;51.402;0.016;2023-06-14T05:41:37;0.52;;;0.35;;
24901;SDS011;31328;51.402;0.016;2023-06-14T05:44:03;0.80;;;0.45;;
24901;SDS011;31328;51.402;0.016;2023-06-14T05:46:29;0.38;;;0.22;;
24901;SDS011;31328;51.402;0.016;2023-06-14T05:48:56;0.20;;;0.20;;
24901;SDS011;31328;51.402;0.016;2023-06-14T05:51:22;0.30;;;0.30;;
24901;SDS011;31328;51.402;0.016;2023-06-14T05:53:50;0.50;;;0.50;;
24901;SDS011;31328;51.402;0.016;2023-06-14T05:56:17;0.68;;;0.30;;
24901;SDS011;31328;51.402;0.016;2023-06-14T05:58:44;0.20;;;0.20;;
24901;SDS011;31328;51.402;0.016;2023-06-14T06:01:11;0.35;;;0.10;;
24901;SDS011;31328;51.402;0.016;2023-06-14T06:03:39;1.13;;;0.47;;
24901;SDS011;31328;51.402;0.016;2023-06-14T06:06:05;0.38;;;0.32;;
24901;SDS011;31328;51.402;0.016;2023-06-14T06:08:31;0.20;;;0.20;;
24901;SDS011;31328;51.402;0.016;2023-06-14T06:10:58;0.70;;;0.15;;
24901;SDS011;31328;51.402;0.016;2023-06-14T06:13:26;1.27;;;0.43;;
24901;SDS011;31328;51.402;0.016;2023-06-14T06:15:53;0.00;;;0.00;;
24901;SDS011;31328;51.402;0.016;2023-06-14T06:18:19;0.10;;;0.10;;
24901;SDS011;31328;51.402;0.016;2023-06-14T06:20:45;0.30;;;0.20;;
24901;SDS011;31328;51.402;0.016;2023-06-14T06:23:12;0.50;;;0.30;;
24901;SDS011;31328;51.402;0.016;2023-06-14T06:25:39;0.10;;;0.10;;
24901;SDS011;31328;51.402;0.016;2023-06-14T06:28:05;0.68;;;0.22;;
24901;SDS011;31328;51.402;0.016;2023-06-14T06:30:32;0.28;;;0.28;;
24901;SDS011;31328;51.402;0.016;2023-06-14T06:32:58;0.45;;;0.35;;
24901;SDS011;31328;51.402;0.016;2023-06-14T06:35:25;0.57;;;0.57;;
24901;SDS011;31328;51.402;0.016;2023-06-14T06:37:51;0.75;;;0.43;;
24901;SDS011;31328;51.402;0.016;2023-06-14T06:40:18;0.68;;;0.68;;
24901;SDS011;31328;51.402;0.016;2023-06-14T06:42:45;0.13;;;0.13;;
24901;SDS011;31328;51.402;0.016;2023-06-14T06:45:13;0.35;;;0.35;;
24901;SDS011;31328;51.402;0.016;2023-06-14T06:47:39;0.03;;;0.03;;
24901;SDS011;31328;51.402;0.016;2023-06-14T06:50:05;0.10;;;0.00;;
24901;SDS011;31328;51.402;0.016;2023-06-14T06:52:33;0.03;;;0.00;;
24901;SDS011;31328;51.402;0.016;2023-06-14T06:54:59;0.13;;;0.13;;
24901;SDS011;31328;51.402;0.016;2023-06-14T06:57:26;0.10;;;0.10;;
24901;SDS011;31328;51.402;0.016;2023-06-14T06:59:54;0.30;;;0.30;;
24901;SDS011;31328;51.402;0.016;2023-06-14T07:02:21;0.85;;;0.30;;
24901;SDS011;31328;51.402;0.016;2023-06-14T07:04:47;0.00;;;0.00;;
24901;SDS011;31328;51.402;0.016;2023-06-14T07:07:13;0.00;;;0.00;;
24901;SDS011;31328;51.402;0.016;2023-06-14T07:09:40;0.00;;;0.00;;
24901;SDS011;31328;51.402;0.016;2023-06-14T07:12:07;0.10;;;0.10;;
24901;SDS011;31328;51.402;0.016;2023-06-14T07:14:34;0.00;;;0.00;;
24901;SDS011;31328;51.402;0.016;2023-06-14T07:17:00;0.22;;;0.10;;
24901;SDS011;31328;51.402;0.016;2023-06-14T07:19:26;0.10;;;0.10;;
24901;SDS011;31328;51.402;0.016;2023-06-14T07:21:52;0.00;;;0.00;;
24901;SDS011;31328;51.402;0.016;2023-06-14T07:24:20;0.32;;;0.20;;
24901;SDS011;31328;51.402;0.016;2023-06-14T07:26:47;0.00;;;0.00;;
24901;SDS011;31328;51.402;0.016;2023-06-14T07:29:14;0.00;;;0.00;;
24901;SDS011;31328;51.402;0.016;2023-06-14T07:31:42;2.28;;;0.10;;
24901;SDS011;31328;51.402;0.016;2023-06-14T07:34:08;0.10;;;0.10;;
24901;SDS011;31328;51.402;0.016;2023-06-14T07:36:35;0.00;;;0.00;;
24901;SDS011;31328;51.402;0.016;2023-06-14T07:39:02;0.10;;;0.10;;
24901;SDS011;31328;51.402;0.016;2023-06-14T07:41:29;0.05;;;0.05;;
24901;SDS011;31328;51.402;0.016;2023-06-14T07:43:55;0.30;;;0.28;;
24901;SDS011;31328;51.402;0.016;2023-06-14T07:46:22;0.00;;;0.00;;
24901;SDS011;31328;51.402;0.016;2023-06-14T07:48:48;0.10;;;0.10;;
24901;SDS011;31328;51.402;0.016;2023-06-14T07:51:15;0.08;;;0.08;;
24901;SDS011;31328;51.402;0.016;2023-06-14T07:53:41;0.20;;;0.10;;
24901;SDS011;31328;51.402;0.016;2023-06-14T07:56:08;0.60;;;0.25;;
24901;SDS011;31328;51.402;0.016;2023-06-14T07:58:34;0.05;;;0.03;;
24901;SDS011;31328;51.402;0.016;2023-06-14T08:01:00;0.25;;;0.10;;
24901;SDS011;31328;51.402;0.016;2023-06-14T08:03:32;0.00;;;0.00;;
24901;SDS011;31328;51.402;0.016;2023-06-14T08:05:58;0.00;;;0.00;;
24901;SDS011;31328;51.402;0.016;2023-06-14T08:08:24;0.00;;;0.00;;
24901;SDS011;31328;51.402;0.016;2023-06-14T08:10:50;0.10;;;0.10;;
24901;SDS011;31328;51.402;0.016;2023-06-14T08:13:17;0.25;;;0.20;;
24901;SDS011;31328;51.402;0.016;2023-06-14T08:15:43;0.35;;;0.13;;
24901;SDS011;31328;51.402;0.016;2023-06-14T08:18:10;0.15;;;0.15;;
24901;SDS011;31328;51.402;0.016;2023-06-14T08:20:36;0.17;;;0.17;;
24901;SDS011;31328;51.402;0.016;2023-06-14T08:23:03;0.05;;;0.05;;
24901;SDS011;31328;51.402;0.016;2023-06-14T08:25:30;0.00;;;0.00;;
24901;SDS011;31328;51.402;0.016;2023-06-14T08:27:58;0.00;;;0.00;;
24901;SDS011;31328;51.402;0.016;2023-06-14T08:30:26;0.00;;;0.00;;
24901;SDS011;31328;51.402;0.016;2023-06-14T08:32:52;0.20;;;0.20;;
24901;SDS011;31328;51.402;0.016;2023-06-14T08:35:21;0.20;;;0.20;;
24901;SDS011;31328;51.402;0.016;2023-06-14T08:37:48;0.10;;;0.10;;
24901;SDS011;31328;51.402;0.016;2023-06-14T08:40:19;0.17;;;0.17;;
24901;SDS011;31328;51.402;0.016;2023-06-14T08:42:51;0.10;;;0.10;;
24901;SDS011;31328;51.402;0.016;2023-06-14T08:45:22;0.13;;;0.10;;
24901;SDS011;31328;51.402;0.016;2023-06-14T08:47:49;0.20;;;0.10;;
24901;SDS011;31328;51.402;0.016;2023-06-14T08:50:19;0.20;;;0.20;;
24901;SDS011;31328;51.402;0.016;2023-06-14T08:52:57;0.68;;;0.35;;
24901;SDS011;31328;51.402;0.016;2023-06-14T08:55:28;0.35;;;0.13;;
24901;SDS011;31328;51.402;0.016;2023-06-14T08:57:56;0.45;;;0.40;;
24901;SDS011;31328;51.402;0.016;2023-06-14T09:00:24;0.00;;;0.00;;
24901;SDS011;31328;51.402;0.016;2023-06-14T09:02:52;0.00;;;0.00;;
24901;SDS011;31328;51.402;0.016;2023-06-14T09:05:24;0.10;;;0.10;;
24901;SDS011;31328;51.402;0.016;2023-06-14T09:07:51;0.65;;;0.20;;
24901;SDS011;31328;51.402;0.016;2023-06-14T09:10:18;1.45;;;0.77;;
24901;SDS011;31328;51.402;0.016;2023-06-14T09:12:46;0.05;;;0.05;;
24901;SDS011;31328;51.402;0.016;2023-06-14T09:15:13;0.28;;;0.28;;
24901;SDS011;31328;51.402;0.016;2023-06-14T09:17:40;0.00;;;0.00;;
24901;SDS011;31328;51.402;0.016;2023-06-14T09:20:07;0.38;;;0.00;;
24901;SDS011;31328;51.402;0.016;2023-06-14T09:22:43;0.05;;;0.00;;
24901;SDS011;31328;51.402;0.016;2023-06-14T09:25:09;0.00;;;0.00;;
24901;SDS011;31328;51.402;0.016;2023-06-14T09:27:38;0.38;;;0.38;;
24901;SDS011;31328;51.402;0.016;2023-06-14T09:30:08;0.50;;;0.30;;
24901;SDS011;31328;51.402;0.016;2023-06-14T09:32:39;0.17;;;0.17;;
24901;SDS011;31328;51.402;0.016;2023-06-14T09:35:06;0.00;;;0.00;;
24901;SDS011;31328;51.402;0.016;2023-06-14T09:37:33;0.05;;;0.00;;
24901;SDS011;31328;51.402;0.016;2023-06-14T09:40:00;0.03;;;0.03;;
24901;SDS011;31328;51.402;0.016;2023-06-14T09:42:28;0.28;;;0.20;;
24901;SDS011;31328;51.402;0.016;2023-06-14T09:44:56;1.02;;;0.35;;
24901;SDS011;31328;51.402;0.016;2023-06-14T09:47:23;0.00;;;0.00;;
24901;SDS011;31328;51.402;0.016;2023-06-14T09:49:50;0.10;;;0.10;;
24901;SDS011;31328;51.402;0.016;2023-06-14T09:52:18;0.00;;;0.00;;
24901;SDS011;31328;51.402;0.016;2023-06-14T09:54:46;1.65;;;0.10;;
24901;SDS011;31328;51.402;0.016;2023-06-14T09:57:15;0.47;;;0.25;;
24901;SDS011;31328;51.402;0.016;2023-06-14T10:02:32;0.10;;;0.10;;
24901;SDS011;31328;51.402;0.016;2023-06-14T10:05:04;1.45;;;0.55;;
24901;SDS011;31328;51.402;0.016;2023-06-14T10:07:34;0.00;;;0.00;;
24901;SDS011;31328;51.402;0.016;2023-06-14T10:10:06;0.10;;;0.10;;
24901;SDS011;31328;51.402;0.016;2023-06-14T10:12:33;0.15;;;0.15;;
24901;SDS011;31328;51.402;0.016;2023-06-14T10:14:59;0.10;;;0.03;;
24901;SDS011;31328;51.402;0.016;2023-06-14T10:17:47;0.10;;;0.03;;
24901;SDS011;31328;51.402;0.016;2023-06-14T10:20:28;0.32;;;0.30;;
24901;SDS011;31328;51.402;0.016;2023-06-14T10:23:03;0.32;;;0.10;;
24901;SDS011;31328;51.402;0.016;2023-06-14T10:26:01;0.25;;;0.25;;
24901;SDS011;31328;51.402;0.016;2023-06-14T10:28:27;0.30;;;0.30;;
24901;SDS011;31328;51.402;0.016;2023-06-14T10:31:05;0.10;;;0.10;;
24901;SDS011;31328;51.402;0.016;2023-06-14T10:33:39;0.20;;;0.20;;
24901;SDS011;31328;51.402;0.016;2023-06-14T10:36:30;0.20;;;0.00;;
24901;SDS011;31328;51.402;0.016;2023-06-14T10:39:07;0.03;;;0.03;;
24901;SDS011;31328;51.402;0.016;2023-06-14T10:41:40;0.10;;;0.08;;
24901;SDS011;31328;51.402;0.016;2023-06-14T10:46:39;0.10;;;0.10;;
24901;SDS011;31328;51.402;0.016;2023-06-14T10:49:06;0.10;;;0.10;;
24901;SDS011;31328;51.402;0.016;2023-06-14T10:51:38;0.20;;;0.20;;
24901;SDS011;31328;51.402;0.016;2023-06-14T10:54:13;0.20;;;0.15;;
24901;SDS011;31328;51.402;0.016;2023-06-14T10:57:13;0.40;;;0.17;;
24901;SDS011;31328;51.402;0.016;2023-06-14T10:59:33;0.03;;;0.03;;
24901;SDS011;31328;51.402;0.016;2023-06-14T11:13:00;0.20;;;0.20;;
24901;SDS011;31328;51.402;0.016;2023-06-14T11:15:33;0.20;;;0.20;;
24901;SDS011;31328;51.402;0.016;2023-06-14T11:18:02;0.05;;;0.05;;
24901;SDS011;31328;51.402;0.016;2023-06-14T11:20:31;0.20;;;0.15;;
24901;SDS011;31328;51.402;0.016;2023-06-14T11:22:58;0.20;;;0.20;;
24901;SDS011;31328;51.402;0.016;2023-06-14T11:25:25;0.10;;;0.10;;
24901;SDS011;31328;51.402;0.016;2023-06-14T11:27:54;0.10;;;0.10;;
24901;SDS011;31328;51.402;0.016;2023-06-14T11:30:21;0.43;;;0.40;;
24901;SDS011;31328;51.402;0.016;2023-06-14T11:32:49;0.20;;;0.20;;
24901;SDS011;31328;51.402;0.016;2023-06-14T11:35:18;0.52;;;0.30;;
24901;SDS011;31328;51.402;0.016;2023-06-14T11:37:45;1.15;;;0.35;;
24901;SDS011;31328;51.402;0.016;2023-06-14T11:40:11;0.32;;;0.20;;
24901;SDS011;31328;51.402;0.016;2023-06-14T11:42:39;0.90;;;0.50;;
24901;SDS011;31328;51.402;0.016;2023-06-14T11:45:10;0.30;;;0.10;;
24901;SDS011;31328;51.402;0.016;2023-06-14T11:47:40;1.45;;;0.30;;
24901;SDS011;31328;51.402;0.016;2023-06-14T11:50:07;0.00;;;0.00;;
24901;SDS011;31328;51.402;0.016;2023-06-14T11:52:36;0.00;;;0.00;;
24901;SDS011;31328;51.402;0.016;2023-06-14T11:55:03;0.15;;;0.10;;
24901;SDS011;31328;51.402;0.016;2023-06-14T11:57:33;0.10;;;0.10;;
24901;SDS011;31328;51.402;0.016;2023-06-14T12:00:04;0.10;;;0.10;;
24901;SDS011;31328;51.402;0.016;2023-06-14T12:02:38;0.03;;;0.03;;
24901;SDS011;31328;51.402;0.016;2023-06-14T12:05:06;0.65;;;0.25;;
24901;SDS011;31328;51.402;0.016;2023-06-14T12:07:38;0.17;;;0.00;;
24901;SDS011;31328;51.402;0.016;2023-06-14T12:10:11;0.28;;;0.20;;
24901;SDS011;31328;51.402;0.016;2023-06-14T12:12:39;0.00;;;0.00;;
24901;SDS011;31328;51.402;0.016;2023-06-14T12:15:06;0.03;;;0.03;;
24901;SDS011;31328;51.402;0.016;2023-06-14T12:17:34;0.17;;;0.10;;
24901;SDS011;31328;51.402;0.016;2023-06-14T12:20:05;0.25;;;0.25;;
24901;SDS011;31328;51.402;0.016;2023-06-14T12:22:55;2.13;;;0.38;;
24901;SDS011;31328;51.402;0.016;2023-06-14T12:25:23;0.30;;;0.30;;
24901;SDS011;31328;51.402;0.016;2023-06-14T12:27:53;0.20;;;0.15;;
24901;SDS011;31328;51.402;0.016;2023-06-14T12:30:20;0.20;;;0.20;;
24901;SDS011;31328;51.402;0.016;2023-06-14T12:32:47;0.82;;;0.15;;
24901;SDS011;31328;51.402;0.016;2023-06-14T12:35:14;0.10;;;0.10;;
24901;SDS011;31328;51.402;0.016;2023-06-14T12:37:41;0.57;;;0.22;;
24901;SDS011;31328;51.402;0.016;2023-06-14T12:40:07;0.10;;;0.10;;
24901;SDS011;31328;51.402;0.016;2023-06-14T12:42:34;1.40;;;0.20;;
24901;SDS011;31328;51.402;0.016;2023-06-14T12:45:00;0.10;;;0.10;;
24901;SDS011;31328;51.402;0.016;2023-06-14T12:47:27;0.55;;;0.25;;
24901;SDS011;31328;51.402;0.016;2023-06-14T12:49:54;1.02;;;0.22;;
24901;SDS011;31328;51.402;0.016;2023-06-14T12:52:20;0.90;;;0.15;;
24901;SDS011;31328;51.402;0.016;2023-06-14T12:54:46;0.08;;;0.08;;
24901;SDS011;31328;51.402;0.016;2023-06-14T12:57:13;0.17;;;0.13;;
24901;SDS011;31328;51.402;0.016;2023-06-14T12:59:39;1.10;;;0.60;;
24901;SDS011;31328;51.402;0.016;2023-06-14T13:02:12;0.10;;;0.10;;
24901;SDS011;31328;51.402;0.016;2023-06-14T13:04:40;0.10;;;0.10;;
24901;SDS011;31328;51.402;0.016;2023-06-14T13:07:07;0.00;;;0.00;;
24901;SDS011;31328;51.402;0.016;2023-06-14T13:09:33;0.32;;;0.32;;
24901;SDS011;31328;51.402;0.016;2023-06-14T13:12:00;0.22;;;0.22;;
24901;SDS011;31328;51.402;0.016;2023-06-14T13:14:27;0.15;;;0.08;;
24901;SDS011;31328;51.402;0.016;2023-06-14T13:16:53;0.30;;;0.30;;
24901;SDS011;31328;51.402;0.016;2023-06-14T13:19:20;0.32;;;0.32;;
24901;SDS011;31328;51.402;0.016;2023-06-14T13:21:47;0.03;;;0.03;;
24901;SDS011;31328;51.402;0.016;2023-06-14T13:24:14;1.05;;;0.45;;
24901;SDS011;31328;51.402;0.016;2023-06-14T13:26:41;0.50;;;0.28;;
24901;SDS011;31328;51.402;0.016;2023-06-14T13:29:07;0.20;;;0.20;;
24901;SDS011;31328;51.402;0.016;2023-06-14T13:31:33;0.17;;;0.10;;
24901;SDS011;31328;51.402;0.016;2023-06-14T13:34:00;0.13;;;0.13;;
24901;SDS011;31328;51.402;0.016;2023-06-14T13:36:26;0.55;;;0.10;;
24901;SDS011;31328;51.402;0.016;2023-06-14T13:38:52;0.40;;;0.40;;
24901;SDS011;31328;51.402;0.016;2023-06-14T13:41:20;0.10;;;0.10;;
24901;SDS011;31328;51.402;0.016;2023-06-14T13:43:47;0.30;;;0.30;;
24901;SDS011;31328;51.402;0.016;2023-06-14T13:46:13;0.25;;;0.13;;
24901;SDS011;31328;51.402;0.016;2023-06-14T13:48:39;0.10;;;0.10;;
24901;SDS011;31328;51.402;0.016;2023-06-14T13:51:05;0.15;;;0.15;;
24901;SDS011;31328;51.402;0.016;2023-06-14T13:53:32;0.57;;;0.20;;
24901;SDS011;31328;51.402;0.016;2023-06-14T13:55:59;0.10;;;0.10;;
24901;SDS011;31328;51.402;0.016;2023-06-14T13:58:25;0.10;;;0.10;;
24901;SDS011;31328;51.402;0.016;2023-06-14T14:00:51;0.20;;;0.20;;
24901;SDS011;31328;51.402;0.016;2023-06-14T14:03:18;0.40;;;0.40;;
24901;SDS011;31328;51.402;0.016;2023-06-14T14:05:45;0.13;;;0.10;;
24901;SDS011;31328;51.402;0.016;2023-06-14T14:08:11;0.03;;;0.03;;
24901;SDS011;31328;51.402;0.016;2023-06-14T14:10:38;0.25;;;0.25;;
24901;SDS011;31328;51.402;0.016;2023-06-14T14:13:04;0.20;;;0.20;;
24901;SDS011;31328;51.402;0.016;2023-06-14T14:15:31;0.30;;;0.20;;
24901;SDS011;31328;51.402;0.016;2023-06-14T14:18:00;0.50;;;0.30;;
24901;SDS011;31328;51.402;0.016;2023-06-14T14:20:27;0.40;;;0.10;;
24901;SDS011;31328;51.402;0.016;2023-06-14T14:22:55;0.10;;;0.10;;
24901;SDS011;31328;51.402;0.016;2023-06-14T14:25:21;0.30;;;0.30;;
24901;SDS011;31328;51.402;0.016;2023-06-14T14:27:48;0.10;;;0.10;;
24901;SDS011;31328;51.402;0.016;2023-06-14T14:30:14;0.20;;;0.20;;
24901;SDS011;31328;51.402;0.016;2023-06-14T14:32:42;0.03;;;0.03;;
24901;SDS011;31328;51.402;0.016;2023-06-14T14:35:10;0.50;;;0.50;;
24901;SDS011;31328;51.402;0.016;2023-06-14T14:37:37;0.85;;;0.10;;
24901;SDS011;31328;51.402;0.016;2023-06-14T14:40:04;0.00;;;0.00;;
24901;SDS011;31328;51.402;0.016;2023-06-14T14:42:31;0.40;;;0.20;;
24901;SDS011;31328;51.402;0.016;2023-06-14T14:44:57;0.52;;;0.30;;
24901;SDS011;31328;51.402;0.016;2023-06-14T14:47:23;0.13;;;0.00;;
24901;SDS011;31328;51.402;0.016;2023-06-14T14:49:50;0.05;;;0.05;;
24901;SDS011;31328;51.402;0.016;2023-06-14T14:52:16;0.10;;;0.10;;
24901;SDS011;31328;51.402;0.016;2023-06-14T14:54:42;0.10;;;0.10;;
24901;SDS011;31328;51.402;0.016;2023-06-14T14:57:09;0.32;;;0.10;;
24901;SDS011;31328;51.402;0.016;2023-06-14T14:59:36;0.13;;;0.10;;
24901;SDS011;31328;51.402;0.016;2023-06-14T15:02:02;0.05;;;0.05;;
24901;SDS011;31328;51.402;0.016;2023-06-14T15:04:29;0.20;;;0.20;;
24901;SDS011;31328;51.402;0.016;2023-06-14T15:06:55;0.10;;;0.10;;
24901;SDS011;31328;51.402;0.016;2023-06-14T15:09:21;1.05;;;0.03;;
24901;SDS011;31328;51.402;0.016;2023-06-14T15:11:48;0.10;;;0.10;;
24901;SDS011;31328;51.402;0.016;2023-06-14T15:14:14;0.22;;;0.20;;